SWR176 LSZH-WSSS
Flight info
| Callsign | SWR176 |
|---|---|
| Flight time | N/A |
| Altitude | 31000 |
| Route | DEGES Z2 UMVEG DCT DIMLO DCT TEGRI/N0491F330 DCT VEVIN DCT DINRO DCT UDROS DCT ABSAX DCT KARDE DCT REBLO M11 RODAR A909 ABDAN/N0493F350 A846 RANAH L750 ZB G202 RK P628 IBANI L510 BIDEX/N0494F370 L510 GIVAL P628 VPL Y503 RINBA Y507 MAKNA Y511 TOPOR A464 ARAMA DCT TEBUN TEBUN1A |
| Aircraft | B77W/H-SDE1E2E3FGHIJ2J3J4J5M1RWXY/LB1D1 |
Departure
| Time | 2026-04-30 20:55 |
|---|---|
| Airport | Zürich Airport (LSZH) |
Arrival
| Time | N/A |
|---|---|
| Airport | Singapore Changi Airport (WSSS) |
| Time | Latitude | Longitude | Altitude | Speed | Heading |
|---|---|---|---|---|---|
| 2026-04-30 19:35 | 47.46036 | 8.55622 | 1396 ft | 0 kts | 7° |
| 2026-04-30 20:44 | 47.46028 | 8.55621 | 1396 ft | 2 kts | 7° |
| 2026-04-30 20:44 | 47.45998 | 8.55616 | 1395 ft | 2 kts | 6° |
| 2026-04-30 20:45 | 47.45971 | 8.55601 | 1396 ft | 2 kts | 47° |
| 2026-04-30 20:45 | 47.45963 | 8.55583 | 1395 ft | 2 kts | 70° |
| 2026-04-30 20:45 | 47.45960 | 8.55562 | 1395 ft | 1 kts | 93° |
| 2026-04-30 20:46 | 47.45961 | 8.55554 | 1395 ft | 0 kts | 97° |
| 2026-04-30 20:49 | 47.45960 | 8.55567 | 1395 ft | 2 kts | 95° |
| 2026-04-30 20:49 | 47.45957 | 8.55603 | 1396 ft | 4 kts | 96° |
| 2026-04-30 20:49 | 47.45954 | 8.55659 | 1397 ft | 6 kts | 96° |
| 2026-04-30 20:50 | 47.45943 | 8.55823 | 1401 ft | 9 kts | 96° |
| 2026-04-30 20:50 | 47.45936 | 8.55927 | 1403 ft | 10 kts | 96° |
| 2026-04-30 20:50 | 47.45928 | 8.56043 | 1404 ft | 12 kts | 96° |
| 2026-04-30 20:50 | 47.45919 | 8.56177 | 1406 ft | 13 kts | 96° |
| 2026-04-30 20:51 | 47.45924 | 8.56283 | 1408 ft | 7 kts | 53° |
| 2026-04-30 20:51 | 47.46003 | 8.56318 | 1409 ft | 5 kts | 7° |
| 2026-04-30 20:51 | 47.46050 | 8.56329 | 1408 ft | 7 kts | 18° |
| 2026-04-30 20:52 | 47.46090 | 8.56364 | 1408 ft | 6 kts | 38° |
| 2026-04-30 20:52 | 47.46120 | 8.56399 | 1409 ft | 4 kts | 35° |
| 2026-04-30 20:52 | 47.46179 | 8.56374 | 1407 ft | 0 kts | 316° |
| 2026-04-30 20:54 | 47.46624 | 8.55769 | 1394 ft | 101 kts | 318° |
| 2026-04-30 20:54 | 47.47284 | 8.54874 | 1390 ft | 153 kts | 317° |
| 2026-04-30 20:54 | 47.48167 | 8.53677 | 1471 ft | 187 kts | 320° |
| 2026-04-30 20:55 | 47.50300 | 8.51257 | 2355 ft | 205 kts | 335° |
| 2026-04-30 20:55 | 47.51564 | 8.50212 | 2762 ft | 211 kts | 334° |
| 2026-04-30 20:55 | 47.52872 | 8.49092 | 2964 ft | 222 kts | 328° |
| 2026-04-30 20:56 | 47.54298 | 8.45047 | 3524 ft | 236 kts | 266° |
| 2026-04-30 20:56 | 47.53837 | 8.42769 | 3846 ft | 236 kts | 235° |
| 2026-04-30 20:56 | 47.51906 | 8.38882 | 4635 ft | 235 kts | 239° |
| 2026-04-30 20:57 | 47.50834 | 8.36993 | 4673 ft | 250 kts | 211° |
| 2026-04-30 20:57 | 47.49190 | 8.36093 | 4679 ft | 262 kts | 181° |
| 2026-04-30 20:57 | 47.47391 | 8.36527 | 4810 ft | 268 kts | 152° |
| 2026-04-30 20:58 | 47.45219 | 8.40645 | 5708 ft | 262 kts | 97° |
| 2026-04-30 20:58 | 47.45328 | 8.43287 | 6089 ft | 265 kts | 78° |
| 2026-04-30 20:58 | 47.45618 | 8.45990 | 6627 ft | 265 kts | 85° |
| 2026-04-30 20:58 | 47.45712 | 8.48704 | 7119 ft | 266 kts | 89° |
| 2026-04-30 20:59 | 47.45717 | 8.54204 | 8038 ft | 270 kts | 90° |
| 2026-04-30 20:59 | 47.45761 | 8.56990 | 8480 ft | 272 kts | 86° |
| 2026-04-30 21:00 | 47.46002 | 8.62629 | 9348 ft | 277 kts | 86° |
| 2026-04-30 21:00 | 47.46210 | 8.68314 | 10195 ft | 281 kts | 86° |
| 2026-04-30 21:01 | 47.46431 | 8.74230 | 10578 ft | 304 kts | 86° |
| 2026-04-30 21:01 | 47.46550 | 8.77469 | 10645 ft | 321 kts | 86° |
| 2026-04-30 21:01 | 47.46435 | 8.84308 | 10846 ft | 353 kts | 99° |
| 2026-04-30 21:02 | 47.45923 | 8.87930 | 10956 ft | 368 kts | 101° |
| 2026-04-30 21:02 | 47.45363 | 8.91721 | 11260 ft | 377 kts | 101° |
| 2026-04-30 21:02 | 47.44818 | 8.95505 | 11812 ft | 379 kts | 100° |
| 2026-04-30 21:02 | 47.44275 | 8.99292 | 12448 ft | 380 kts | 100° |
| 2026-04-30 21:03 | 47.43721 | 9.03143 | 13073 ft | 383 kts | 100° |
| 2026-04-30 21:03 | 47.43170 | 9.06959 | 13697 ft | 386 kts | 99° |
| 2026-04-30 21:03 | 47.42607 | 9.10854 | 14367 ft | 389 kts | 99° |
| 2026-04-30 21:03 | 47.42045 | 9.14733 | 15044 ft | 392 kts | 99° |
| 2026-04-30 21:04 | 47.41651 | 9.18731 | 15664 ft | 394 kts | 90° |
| 2026-04-30 21:04 | 47.41724 | 9.22750 | 16362 ft | 394 kts | 81° |
| 2026-04-30 21:04 | 47.42822 | 9.30637 | 17815 ft | 395 kts | 75° |
| 2026-04-30 21:05 | 47.43426 | 9.34581 | 18467 ft | 398 kts | 74° |
| 2026-04-30 21:05 | 47.44041 | 9.38612 | 19083 ft | 403 kts | 75° |
| 2026-04-30 21:05 | 47.44658 | 9.42679 | 19755 ft | 406 kts | 75° |
| 2026-04-30 21:05 | 47.45267 | 9.46714 | 20435 ft | 408 kts | 75° |
| 2026-04-30 21:06 | 47.45884 | 9.50812 | 21057 ft | 411 kts | 75° |
| 2026-04-30 21:06 | 47.46506 | 9.54960 | 21667 ft | 414 kts | 75° |
| 2026-04-30 21:06 | 47.47006 | 9.59135 | 22243 ft | 419 kts | 81° |
| 2026-04-30 21:06 | 47.47076 | 9.63450 | 22869 ft | 423 kts | 89° |
| 2026-04-30 21:07 | 47.46865 | 9.67815 | 23500 ft | 426 kts | 91° |
| 2026-04-30 21:07 | 47.46626 | 9.72175 | 24067 ft | 428 kts | 91° |
| 2026-04-30 21:07 | 47.46384 | 9.76549 | 24590 ft | 431 kts | 91° |
| 2026-04-30 21:07 | 47.46140 | 9.80950 | 25072 ft | 434 kts | 91° |
| 2026-04-30 21:08 | 47.45891 | 9.85416 | 25570 ft | 437 kts | 91° |
| 2026-04-30 21:08 | 47.45637 | 9.89935 | 26044 ft | 440 kts | 90° |
| 2026-04-30 21:08 | 47.45381 | 9.94461 | 26491 ft | 444 kts | 90° |
| 2026-04-30 21:08 | 47.45122 | 9.99004 | 27013 ft | 445 kts | 90° |
| 2026-04-30 21:09 | 47.44862 | 10.03538 | 27497 ft | 447 kts | 90° |
| 2026-04-30 21:09 | 47.44599 | 10.08097 | 27938 ft | 450 kts | 90° |
| 2026-04-30 21:09 | 47.44332 | 10.12701 | 28317 ft | 454 kts | 90° |
| 2026-04-30 21:09 | 47.44048 | 10.17362 | 28764 ft | 457 kts | 91° |
| 2026-04-30 21:10 | 47.43522 | 10.21981 | 29186 ft | 462 kts | 95° |
| 2026-04-30 21:10 | 47.42899 | 10.26638 | 29668 ft | 463 kts | 96° |
| 2026-04-30 21:10 | 47.42277 | 10.31246 | 30199 ft | 462 kts | 96° |
| 2026-04-30 21:10 | 47.41644 | 10.35912 | 30860 ft | 459 kts | 95° |
| 2026-04-30 21:11 | 47.41024 | 10.40487 | 31293 ft | 459 kts | 95° |
| 2026-04-30 21:11 | 47.40394 | 10.45126 | 31320 ft | 462 kts | 95° |
| 2026-04-30 21:11 | 47.39136 | 10.54298 | 31336 ft | 455 kts | 95° |
| 2026-04-30 21:12 | 47.37875 | 10.63417 | 31362 ft | 455 kts | 95° |
| 2026-04-30 21:12 | 47.36598 | 10.72602 | 31374 ft | 456 kts | 95° |
| 2026-04-30 21:13 | 47.35330 | 10.81669 | 31370 ft | 454 kts | 95° |
| 2026-04-30 21:13 | 47.34043 | 10.90814 | 31393 ft | 456 kts | 95° |
| 2026-04-30 21:14 | 47.32757 | 10.99892 | 31382 ft | 453 kts | 95° |
| 2026-04-30 21:14 | 47.31466 | 11.08958 | 31379 ft | 451 kts | 95° |
| 2026-04-30 21:15 | 47.30175 | 11.17974 | 31357 ft | 452 kts | 95° |
| 2026-04-30 21:15 | 47.28881 | 11.26950 | 31349 ft | 451 kts | 95° |
| 2026-04-30 21:16 | 47.27570 | 11.35993 | 31330 ft | 449 kts | 95° |
| 2026-04-30 21:16 | 47.26256 | 11.45004 | 31333 ft | 453 kts | 95° |
| 2026-04-30 21:17 | 47.24985 | 11.53998 | 31355 ft | 446 kts | 91° |
| 2026-04-30 21:17 | 47.24031 | 11.63084 | 31361 ft | 446 kts | 91° |
| 2026-04-30 21:18 | 47.23074 | 11.72078 | 31343 ft | 445 kts | 92° |
| 2026-04-30 21:18 | 47.22102 | 11.81040 | 31335 ft | 443 kts | 92° |
| 2026-04-30 21:19 | 47.21122 | 11.89960 | 31325 ft | 445 kts | 92° |
| 2026-04-30 21:19 | 47.20245 | 11.98919 | 31321 ft | 441 kts | 90° |
| 2026-04-30 21:20 | 47.19393 | 12.07807 | 31306 ft | 441 kts | 90° |
| 2026-04-30 21:20 | 47.18528 | 12.16695 | 31332 ft | 441 kts | 90° |
| 2026-04-30 21:21 | 47.17641 | 12.25711 | 31344 ft | 443 kts | 90° |
| 2026-04-30 21:22 | 47.16313 | 12.39031 | 31349 ft | 444 kts | 90° |
| 2026-04-30 21:23 | 47.14508 | 12.56872 | 31350 ft | 444 kts | 90° |
| 2026-04-30 21:23 | 47.13137 | 12.70220 | 31328 ft | 442 kts | 91° |
| 2026-04-30 21:24 | 47.12210 | 12.79158 | 31312 ft | 440 kts | 91° |
| 2026-04-30 21:24 | 47.11287 | 12.87994 | 31301 ft | 441 kts | 91° |
| 2026-04-30 21:25 | 47.09881 | 13.01314 | 31298 ft | 439 kts | 91° |
| 2026-04-30 21:26 | 47.08470 | 13.14552 | 31308 ft | 441 kts | 91° |
| 2026-04-30 21:27 | 47.07033 | 13.27856 | 31317 ft | 440 kts | 91° |
| 2026-04-30 21:27 | 47.06060 | 13.36812 | 31310 ft | 443 kts | 91° |
| 2026-04-30 21:28 | 47.04596 | 13.50115 | 31306 ft | 443 kts | 91° |
| 2026-04-30 21:29 | 47.03114 | 13.63448 | 31309 ft | 444 kts | 92° |
| 2026-04-30 21:30 | 47.00582 | 13.85889 | 31341 ft | 448 kts | 92° |
| 2026-04-30 21:31 | 46.98001 | 14.08359 | 31367 ft | 449 kts | 93° |
| 2026-04-30 21:32 | 46.96431 | 14.21822 | 31379 ft | 450 kts | 92° |
| 2026-04-30 21:32 | 46.95370 | 14.30855 | 31387 ft | 453 kts | 93° |
| 2026-04-30 21:33 | 46.93755 | 14.44471 | 31389 ft | 454 kts | 93° |
| 2026-04-30 21:34 | 46.92668 | 14.53543 | 31392 ft | 452 kts | 93° |
| 2026-04-30 21:34 | 46.91021 | 14.67195 | 31399 ft | 454 kts | 94° |
| 2026-04-30 21:35 | 46.89917 | 14.76264 | 31401 ft | 456 kts | 94° |
| 2026-04-30 21:35 | 46.88798 | 14.85383 | 31379 ft | 455 kts | 94° |
| 2026-04-30 21:36 | 46.87678 | 14.94454 | 31355 ft | 458 kts | 94° |
| 2026-04-30 21:37 | 46.85395 | 15.12758 | 31363 ft | 457 kts | 94° |
| 2026-04-30 21:37 | 46.84244 | 15.21903 | 31381 ft | 460 kts | 94° |
| 2026-04-30 21:38 | 46.83073 | 15.31128 | 31404 ft | 462 kts | 94° |
| 2026-04-30 21:38 | 46.81905 | 15.40275 | 31399 ft | 460 kts | 95° |
| 2026-04-30 21:39 | 46.80726 | 15.49441 | 31401 ft | 461 kts | 95° |
| 2026-04-30 21:39 | 46.79529 | 15.58693 | 31400 ft | 461 kts | 95° |
| 2026-04-30 21:40 | 46.78340 | 15.67821 | 31402 ft | 462 kts | 95° |
| 2026-04-30 21:40 | 46.77134 | 15.77014 | 31406 ft | 461 kts | 95° |
| 2026-04-30 21:41 | 46.75917 | 15.86241 | 31395 ft | 464 kts | 95° |
| 2026-04-30 21:41 | 46.74695 | 15.95429 | 31391 ft | 462 kts | 96° |
| 2026-04-30 21:42 | 46.73462 | 16.04657 | 31393 ft | 464 kts | 96° |
| 2026-04-30 21:42 | 46.72219 | 16.13890 | 31384 ft | 465 kts | 96° |
| 2026-04-30 21:43 | 46.70967 | 16.23134 | 31374 ft | 466 kts | 96° |
| 2026-04-30 21:43 | 46.69710 | 16.32356 | 31373 ft | 466 kts | 96° |
| 2026-04-30 21:44 | 46.68444 | 16.41576 | 31376 ft | 465 kts | 96° |
| 2026-04-30 21:44 | 46.67609 | 16.50884 | 31371 ft | 466 kts | 90° |
| 2026-04-30 21:45 | 46.67026 | 16.60173 | 31376 ft | 462 kts | 90° |
| 2026-04-30 21:45 | 46.66401 | 16.69517 | 31373 ft | 465 kts | 91° |
| 2026-04-30 21:46 | 46.65755 | 16.78793 | 31374 ft | 464 kts | 91° |
| 2026-04-30 21:46 | 46.65084 | 16.88172 | 31368 ft | 466 kts | 91° |
| 2026-04-30 21:47 | 46.64405 | 16.97495 | 31368 ft | 468 kts | 91° |
| 2026-04-30 21:47 | 46.63710 | 17.06894 | 31370 ft | 466 kts | 91° |
| 2026-04-30 21:48 | 46.63008 | 17.16273 | 31374 ft | 467 kts | 91° |
| 2026-04-30 21:48 | 46.62298 | 17.25640 | 31380 ft | 468 kts | 92° |
| 2026-04-30 21:49 | 46.61573 | 17.35108 | 31377 ft | 470 kts | 92° |
| 2026-04-30 21:49 | 46.60844 | 17.44503 | 31373 ft | 468 kts | 92° |
| 2026-04-30 21:50 | 46.60107 | 17.53901 | 31369 ft | 471 kts | 92° |
| 2026-04-30 21:50 | 46.59362 | 17.63313 | 31369 ft | 470 kts | 92° |
| 2026-04-30 21:51 | 46.58606 | 17.72758 | 31371 ft | 472 kts | 93° |
| 2026-04-30 21:51 | 46.57836 | 17.82261 | 31365 ft | 472 kts | 93° |
| 2026-04-30 21:52 | 46.57066 | 17.91675 | 31374 ft | 472 kts | 93° |
| 2026-04-30 21:52 | 46.56281 | 18.01183 | 31370 ft | 474 kts | 93° |
| 2026-04-30 21:53 | 46.55484 | 18.10731 | 31370 ft | 473 kts | 93° |
| 2026-04-30 21:53 | 46.54686 | 18.20196 | 31372 ft | 474 kts | 93° |
| 2026-04-30 21:54 | 46.53875 | 18.29715 | 31366 ft | 474 kts | 94° |
| 2026-04-30 21:54 | 46.53062 | 18.39162 | 31366 ft | 475 kts | 94° |
| 2026-04-30 21:55 | 46.52234 | 18.48689 | 31366 ft | 476 kts | 94° |
| 2026-04-30 21:55 | 46.51393 | 18.58271 | 31363 ft | 476 kts | 94° |
| 2026-04-30 21:56 | 46.50552 | 18.67765 | 31368 ft | 477 kts | 95° |
| 2026-04-30 21:56 | 46.49694 | 18.77365 | 31361 ft | 479 kts | 95° |
| 2026-04-30 21:57 | 46.48832 | 18.86903 | 31367 ft | 477 kts | 95° |
| 2026-04-30 21:57 | 46.47962 | 18.96446 | 31363 ft | 479 kts | 95° |
| 2026-04-30 21:58 | 46.47077 | 19.06062 | 31367 ft | 481 kts | 95° |
| 2026-04-30 21:58 | 46.46186 | 19.15647 | 31360 ft | 480 kts | 95° |
| 2026-04-30 21:59 | 46.45289 | 19.25221 | 31351 ft | 481 kts | 95° |
| 2026-04-30 22:00 | 46.43927 | 19.39571 | 31355 ft | 481 kts | 95° |
| 2026-04-30 22:00 | 46.42547 | 19.53924 | 31349 ft | 482 kts | 95° |
| 2026-04-30 22:01 | 46.41616 | 19.63490 | 31347 ft | 482 kts | 95° |
| 2026-04-30 22:01 | 46.40676 | 19.73076 | 31340 ft | 482 kts | 96° |
| 2026-04-30 22:02 | 46.39722 | 19.82710 | 31348 ft | 483 kts | 96° |
| 2026-04-30 22:02 | 46.38769 | 19.92256 | 31349 ft | 482 kts | 96° |
| 2026-04-30 22:03 | 46.37802 | 20.01859 | 31341 ft | 482 kts | 96° |
| 2026-04-30 22:03 | 46.36823 | 20.11489 | 31342 ft | 483 kts | 96° |
| 2026-04-30 22:04 | 46.35838 | 20.21106 | 31339 ft | 484 kts | 96° |
| 2026-04-30 22:05 | 46.34343 | 20.35536 | 31346 ft | 484 kts | 96° |
| 2026-04-30 22:05 | 46.33332 | 20.45203 | 31340 ft | 485 kts | 96° |
| 2026-04-30 22:06 | 46.32323 | 20.54763 | 31336 ft | 485 kts | 96° |
| 2026-04-30 22:06 | 46.30777 | 20.69252 | 31330 ft | 487 kts | 96° |
| 2026-04-30 22:07 | 46.29745 | 20.78829 | 31326 ft | 486 kts | 96° |
| 2026-04-30 22:07 | 46.28697 | 20.88479 | 31322 ft | 486 kts | 96° |
| 2026-04-30 22:08 | 46.27640 | 20.98138 | 31318 ft | 486 kts | 96° |
| 2026-04-30 22:08 | 46.26561 | 21.07718 | 31313 ft | 488 kts | 99° |
| 2026-04-30 22:09 | 46.24549 | 21.17099 | 31324 ft | 492 kts | 107° |
| 2026-04-30 22:09 | 46.22250 | 21.26476 | 31723 ft | 498 kts | 107° |
| 2026-04-30 22:10 | 46.21098 | 21.31124 | 32272 ft | 492 kts | 107° |
| 2026-04-30 22:10 | 46.19949 | 21.35742 | 32722 ft | 488 kts | 107° |
| 2026-04-30 22:10 | 46.18795 | 21.40365 | 33008 ft | 489 kts | 107° |
| 2026-04-30 22:10 | 46.17651 | 21.44932 | 33207 ft | 491 kts | 107° |
| 2026-04-30 22:11 | 46.15318 | 21.54205 | 33312 ft | 493 kts | 107° |
| 2026-04-30 22:11 | 46.14142 | 21.58858 | 33311 ft | 493 kts | 107° |
| 2026-04-30 22:12 | 46.11803 | 21.68082 | 33311 ft | 492 kts | 108° |
| 2026-04-30 22:12 | 46.09451 | 21.77318 | 33304 ft | 492 kts | 108° |
| 2026-04-30 22:13 | 46.07076 | 21.86602 | 33305 ft | 493 kts | 108° |